sensor_id;sensor_type;location;lat;lon;timestamp;P1;durP1;ratioP1;P2;durP2;ratioP2
9496;SDS011;4786;51.270;4.456;2022-11-11T00:01:04;15.63;;;11.63;;
9496;SDS011;4786;51.270;4.456;2022-11-11T00:03:32;15.27;;;11.70;;
9496;SDS011;4786;51.270;4.456;2022-11-11T00:06:01;12.47;;;10.13;;
9496;SDS011;4786;51.270;4.456;2022-11-11T00:08:31;12.73;;;11.10;;
9496;SDS011;4786;51.270;4.456;2022-11-11T00:11:04;17.03;;;11.10;;
9496;SDS011;4786;51.270;4.456;2022-11-11T00:13:35;15.20;;;10.43;;
9496;SDS011;4786;51.270;4.456;2022-11-11T00:16:06;15.17;;;10.70;;
9496;SDS011;4786;51.270;4.456;2022-11-11T00:18:32;14.43;;;11.13;;
9496;SDS011;4786;51.270;4.456;2022-11-11T00:21:16;13.37;;;10.90;;
9496;SDS011;4786;51.270;4.456;2022-11-11T00:24:00;14.03;;;10.80;;
9496;SDS011;4786;51.270;4.456;2022-11-11T00:26:44;14.97;;;11.23;;
9496;SDS011;4786;51.270;4.456;2022-11-11T00:29:10;13.53;;;11.33;;
9496;SDS011;4786;51.270;4.456;2022-11-11T00:31:36;14.87;;;11.60;;
9496;SDS011;4786;51.270;4.456;2022-11-11T00:34:22;13.07;;;10.40;;
9496;SDS011;4786;51.270;4.456;2022-11-11T00:36:48;15.93;;;12.37;;
9496;SDS011;4786;51.270;4.456;2022-11-11T00:39:13;13.70;;;11.40;;
9496;SDS011;4786;51.270;4.456;2022-11-11T00:41:39;16.30;;;10.83;;
9496;SDS011;4786;51.270;4.456;2022-11-11T00:44:05;13.70;;;10.90;;
9496;SDS011;4786;51.270;4.456;2022-11-11T00:46:31;17.57;;;11.13;;
9496;SDS011;4786;51.270;4.456;2022-11-11T00:49:15;15.40;;;10.80;;
9496;SDS011;4786;51.270;4.456;2022-11-11T00:51:59;11.80;;;10.43;;
9496;SDS011;4786;51.270;4.456;2022-11-11T00:54:24;16.63;;;9.80;;
9496;SDS011;4786;51.270;4.456;2022-11-11T00:56:50;14.30;;;10.17;;
9496;SDS011;4786;51.270;4.456;2022-11-11T00:59:16;12.57;;;10.13;;
9496;SDS011;4786;51.270;4.456;2022-11-11T01:01:41;13.37;;;10.40;;
9496;SDS011;4786;51.270;4.456;2022-11-11T01:04:08;13.20;;;10.17;;
9496;SDS011;4786;51.270;4.456;2022-11-11T01:06:33;13.33;;;9.70;;
9496;SDS011;4786;51.270;4.456;2022-11-11T01:09:03;13.83;;;9.50;;
9496;SDS011;4786;51.270;4.456;2022-11-11T01:11:30;12.57;;;9.30;;
9496;SDS011;4786;51.270;4.456;2022-11-11T01:13:56;12.33;;;9.70;;
9496;SDS011;4786;51.270;4.456;2022-11-11T01:16:23;12.40;;;10.13;;
9496;SDS011;4786;51.270;4.456;2022-11-11T01:18:51;11.23;;;9.63;;
9496;SDS011;4786;51.270;4.456;2022-11-11T01:21:19;12.07;;;9.43;;
9496;SDS011;4786;51.270;4.456;2022-11-11T01:23:48;13.00;;;9.97;;
9496;SDS011;4786;51.270;4.456;2022-11-11T01:26:21;11.43;;;9.37;;
9496;SDS011;4786;51.270;4.456;2022-11-11T01:28:53;14.43;;;9.17;;
9496;SDS011;4786;51.270;4.456;2022-11-11T01:31:21;13.27;;;9.27;;
9496;SDS011;4786;51.270;4.456;2022-11-11T01:33:48;14.60;;;9.37;;
9496;SDS011;4786;51.270;4.456;2022-11-11T01:36:18;11.37;;;9.43;;
9496;SDS011;4786;51.270;4.456;2022-11-11T01:38:47;9.87;;;8.43;;
9496;SDS011;4786;51.270;4.456;2022-11-11T01:41:16;13.20;;;9.07;;
9496;SDS011;4786;51.270;4.456;2022-11-11T01:44:16;12.87;;;8.93;;
9496;SDS011;4786;51.270;4.456;2022-11-11T01:47:03;12.17;;;9.40;;
9496;SDS011;4786;51.270;4.456;2022-11-11T01:49:36;16.50;;;9.40;;
9496;SDS011;4786;51.270;4.456;2022-11-11T01:52:20;13.23;;;10.00;;
9496;SDS011;4786;51.270;4.456;2022-11-11T01:59:48;10.57;;;9.37;;
9496;SDS011;4786;51.270;4.456;2022-11-11T02:02:25;11.67;;;9.03;;
9496;SDS011;4786;51.270;4.456;2022-11-11T02:05:13;15.90;;;10.00;;
9496;SDS011;4786;51.270;4.456;2022-11-11T02:08:00;11.97;;;9.57;;
9496;SDS011;4786;51.270;4.456;2022-11-11T02:10:30;10.77;;;9.53;;
9496;SDS011;4786;51.270;4.456;2022-11-11T02:12:58;12.20;;;9.63;;
9496;SDS011;4786;51.270;4.456;2022-11-11T02:15:43;11.50;;;9.80;;
9496;SDS011;4786;51.270;4.456;2022-11-11T02:18:09;13.10;;;10.03;;
9496;SDS011;4786;51.270;4.456;2022-11-11T02:20:36;13.40;;;9.53;;
9496;SDS011;4786;51.270;4.456;2022-11-11T02:23:06;12.50;;;9.70;;
9496;SDS011;4786;51.270;4.456;2022-11-11T02:25:44;13.33;;;9.77;;
9496;SDS011;4786;51.270;4.456;2022-11-11T02:28:12;13.17;;;9.73;;
9496;SDS011;4786;51.270;4.456;2022-11-11T02:30:39;12.10;;;9.13;;
9496;SDS011;4786;51.270;4.456;2022-11-11T02:33:05;11.83;;;8.87;;
9496;SDS011;4786;51.270;4.456;2022-11-11T02:35:31;11.80;;;9.53;;
9496;SDS011;4786;51.270;4.456;2022-11-11T02:37:59;17.43;;;10.03;;
9496;SDS011;4786;51.270;4.456;2022-11-11T02:40:37;16.47;;;9.50;;
9496;SDS011;4786;51.270;4.456;2022-11-11T02:43:28;12.10;;;9.53;;
9496;SDS011;4786;51.270;4.456;2022-11-11T02:45:58;13.73;;;9.40;;
9496;SDS011;4786;51.270;4.456;2022-11-11T02:48:24;9.87;;;8.87;;
9496;SDS011;4786;51.270;4.456;2022-11-11T02:50:51;14.00;;;9.30;;
9496;SDS011;4786;51.270;4.456;2022-11-11T02:53:18;12.53;;;8.63;;
9496;SDS011;4786;51.270;4.456;2022-11-11T02:55:44;16.30;;;9.17;;
9496;SDS011;4786;51.270;4.456;2022-11-11T02:58:10;15.03;;;9.20;;
9496;SDS011;4786;51.270;4.456;2022-11-11T03:00:37;15.33;;;9.33;;
9496;SDS011;4786;51.270;4.456;2022-11-11T03:03:03;13.13;;;9.50;;
9496;SDS011;4786;51.270;4.456;2022-11-11T03:05:29;13.53;;;9.47;;
9496;SDS011;4786;51.270;4.456;2022-11-11T03:07:55;12.47;;;9.80;;
9496;SDS011;4786;51.270;4.456;2022-11-11T03:10:21;14.13;;;9.57;;
9496;SDS011;4786;51.270;4.456;2022-11-11T03:12:46;13.57;;;9.17;;
9496;SDS011;4786;51.270;4.456;2022-11-11T03:15:12;11.80;;;9.10;;
9496;SDS011;4786;51.270;4.456;2022-11-11T03:17:38;10.47;;;8.80;;
9496;SDS011;4786;51.270;4.456;2022-11-11T03:20:14;15.03;;;9.77;;
9496;SDS011;4786;51.270;4.456;2022-11-11T03:23:00;11.73;;;9.67;;
9496;SDS011;4786;51.270;4.456;2022-11-11T03:25:25;13.33;;;9.73;;
9496;SDS011;4786;51.270;4.456;2022-11-11T03:28:24;12.00;;;8.80;;
9496;SDS011;4786;51.270;4.456;2022-11-11T03:30:49;10.20;;;9.10;;
9496;SDS011;4786;51.270;4.456;2022-11-11T03:33:15;11.30;;;8.57;;
9496;SDS011;4786;51.270;4.456;2022-11-11T03:35:42;10.60;;;8.57;;
9496;SDS011;4786;51.270;4.456;2022-11-11T03:38:12;12.43;;;9.10;;
9496;SDS011;4786;51.270;4.456;2022-11-11T03:40:47;10.03;;;8.97;;
9496;SDS011;4786;51.270;4.456;2022-11-11T03:43:18;12.53;;;9.37;;
9496;SDS011;4786;51.270;4.456;2022-11-11T03:45:45;13.50;;;9.63;;
9496;SDS011;4786;51.270;4.456;2022-11-11T03:48:11;16.10;;;10.03;;
9496;SDS011;4786;51.270;4.456;2022-11-11T03:50:38;16.17;;;10.20;;
9496;SDS011;4786;51.270;4.456;2022-11-11T03:53:04;11.20;;;9.60;;
9496;SDS011;4786;51.270;4.456;2022-11-11T03:55:30;13.70;;;9.67;;
9496;SDS011;4786;51.270;4.456;2022-11-11T03:57:56;11.93;;;10.57;;
9496;SDS011;4786;51.270;4.456;2022-11-11T04:00:23;14.40;;;10.60;;
9496;SDS011;4786;51.270;4.456;2022-11-11T04:02:50;16.90;;;11.30;;
9496;SDS011;4786;51.270;4.456;2022-11-11T04:05:35;14.43;;;10.13;;
9496;SDS011;4786;51.270;4.456;2022-11-11T04:08:19;14.13;;;10.37;;
9496;SDS011;4786;51.270;4.456;2022-11-11T04:11:16;13.13;;;10.27;;
9496;SDS011;4786;51.270;4.456;2022-11-11T04:13:48;11.57;;;10.37;;
9496;SDS011;4786;51.270;4.456;2022-11-11T04:16:33;16.03;;;10.47;;
9496;SDS011;4786;51.270;4.456;2022-11-11T04:18:58;11.60;;;10.10;;
9496;SDS011;4786;51.270;4.456;2022-11-11T04:21:42;14.47;;;10.43;;
9496;SDS011;4786;51.270;4.456;2022-11-11T04:24:08;11.93;;;9.23;;
9496;SDS011;4786;51.270;4.456;2022-11-11T04:26:56;11.00;;;9.23;;
9496;SDS011;4786;51.270;4.456;2022-11-11T04:29:22;11.47;;;9.80;;
9496;SDS011;4786;51.270;4.456;2022-11-11T04:32:11;13.33;;;9.80;;
9496;SDS011;4786;51.270;4.456;2022-11-11T04:34:59;10.43;;;8.50;;
9496;SDS011;4786;51.270;4.456;2022-11-11T04:37:34;10.10;;;9.03;;
9496;SDS011;4786;51.270;4.456;2022-11-11T04:40:02;12.07;;;9.43;;
9496;SDS011;4786;51.270;4.456;2022-11-11T04:42:47;11.17;;;9.20;;
9496;SDS011;4786;51.270;4.456;2022-11-11T04:45:12;14.13;;;9.23;;
9496;SDS011;4786;51.270;4.456;2022-11-11T04:50:31;11.97;;;9.37;;
9496;SDS011;4786;51.270;4.456;2022-11-11T04:53:08;12.10;;;9.43;;
9496;SDS011;4786;51.270;4.456;2022-11-11T04:55:37;10.17;;;8.77;;
9496;SDS011;4786;51.270;4.456;2022-11-11T04:58:23;13.33;;;9.60;;
9496;SDS011;4786;51.270;4.456;2022-11-11T05:00:51;12.90;;;8.87;;
9496;SDS011;4786;51.270;4.456;2022-11-11T05:03:17;13.90;;;9.43;;
9496;SDS011;4786;51.270;4.456;2022-11-11T05:08:29;14.30;;;8.50;;
9496;SDS011;4786;51.270;4.456;2022-11-11T05:11:14;11.40;;;8.87;;
9496;SDS011;4786;51.270;4.456;2022-11-11T05:13:41;11.73;;;8.90;;
9496;SDS011;4786;51.270;4.456;2022-11-11T05:16:26;12.60;;;9.07;;
9496;SDS011;4786;51.270;4.456;2022-11-11T05:19:13;12.67;;;9.13;;
9496;SDS011;4786;51.270;4.456;2022-11-11T05:22:01;12.47;;;8.90;;
9496;SDS011;4786;51.270;4.456;2022-11-11T05:24:50;12.57;;;9.20;;
9496;SDS011;4786;51.270;4.456;2022-11-11T05:27:34;12.20;;;9.00;;
9496;SDS011;4786;51.270;4.456;2022-11-11T05:30:00;12.27;;;9.33;;
9496;SDS011;4786;51.270;4.456;2022-11-11T05:32:26;12.13;;;9.27;;
9496;SDS011;4786;51.270;4.456;2022-11-11T05:34:52;11.53;;;9.20;;
9496;SDS011;4786;51.270;4.456;2022-11-11T05:37:18;13.03;;;9.17;;
9496;SDS011;4786;51.270;4.456;2022-11-11T05:39:44;12.00;;;9.23;;
9496;SDS011;4786;51.270;4.456;2022-11-11T05:42:11;11.63;;;8.70;;
9496;SDS011;4786;51.270;4.456;2022-11-11T05:44:37;11.20;;;8.13;;
9496;SDS011;4786;51.270;4.456;2022-11-11T05:47:02;11.60;;;9.37;;
9496;SDS011;4786;51.270;4.456;2022-11-11T05:49:29;11.30;;;9.70;;
9496;SDS011;4786;51.270;4.456;2022-11-11T05:51:55;12.70;;;10.47;;
9496;SDS011;4786;51.270;4.456;2022-11-11T05:54:21;11.37;;;9.80;;
9496;SDS011;4786;51.270;4.456;2022-11-11T05:56:47;11.10;;;9.93;;
9496;SDS011;4786;51.270;4.456;2022-11-11T05:59:13;14.37;;;9.93;;
9496;SDS011;4786;51.270;4.456;2022-11-11T06:01:39;14.00;;;10.07;;
9496;SDS011;4786;51.270;4.456;2022-11-11T06:04:05;10.77;;;9.47;;
9496;SDS011;4786;51.270;4.456;2022-11-11T06:06:32;10.67;;;9.37;;
9496;SDS011;4786;51.270;4.456;2022-11-11T06:08:59;13.73;;;9.73;;
9496;SDS011;4786;51.270;4.456;2022-11-11T06:11:25;12.67;;;9.67;;
9496;SDS011;4786;51.270;4.456;2022-11-11T06:13:52;11.80;;;9.33;;
9496;SDS011;4786;51.270;4.456;2022-11-11T06:16:18;12.27;;;9.97;;
9496;SDS011;4786;51.270;4.456;2022-11-11T06:18:44;12.97;;;9.47;;
9496;SDS011;4786;51.270;4.456;2022-11-11T06:21:09;11.73;;;10.10;;
9496;SDS011;4786;51.270;4.456;2022-11-11T06:23:35;11.13;;;9.87;;
9496;SDS011;4786;51.270;4.456;2022-11-11T06:26:02;13.00;;;9.80;;
9496;SDS011;4786;51.270;4.456;2022-11-11T06:28:37;11.80;;;9.53;;
9496;SDS011;4786;51.270;4.456;2022-11-11T06:31:04;9.50;;;8.60;;
9496;SDS011;4786;51.270;4.456;2022-11-11T06:33:31;12.17;;;9.73;;
9496;SDS011;4786;51.270;4.456;2022-11-11T06:35:58;11.97;;;9.70;;
9496;SDS011;4786;51.270;4.456;2022-11-11T06:38:24;14.37;;;9.43;;
9496;SDS011;4786;51.270;4.456;2022-11-11T06:40:50;12.60;;;9.77;;
9496;SDS011;4786;51.270;4.456;2022-11-11T06:43:16;13.30;;;9.77;;
9496;SDS011;4786;51.270;4.456;2022-11-11T06:45:42;12.27;;;10.33;;
9496;SDS011;4786;51.270;4.456;2022-11-11T06:48:08;10.63;;;9.57;;
9496;SDS011;4786;51.270;4.456;2022-11-11T06:50:34;10.93;;;9.63;;
9496;SDS011;4786;51.270;4.456;2022-11-11T06:53:07;11.33;;;9.43;;
9496;SDS011;4786;51.270;4.456;2022-11-11T06:55:40;10.90;;;9.53;;
9496;SDS011;4786;51.270;4.456;2022-11-11T06:58:10;12.33;;;9.50;;
9496;SDS011;4786;51.270;4.456;2022-11-11T07:00:37;10.73;;;9.53;;
9496;SDS011;4786;51.270;4.456;2022-11-11T07:03:05;11.07;;;9.40;;
9496;SDS011;4786;51.270;4.456;2022-11-11T07:05:32;12.03;;;9.30;;
9496;SDS011;4786;51.270;4.456;2022-11-11T07:08:05;9.23;;;8.30;;
9496;SDS011;4786;51.270;4.456;2022-11-11T07:10:33;12.07;;;9.03;;
9496;SDS011;4786;51.270;4.456;2022-11-11T07:13:02;10.17;;;9.00;;
9496;SDS011;4786;51.270;4.456;2022-11-11T07:15:27;12.23;;;9.00;;
9496;SDS011;4786;51.270;4.456;2022-11-11T07:17:53;11.90;;;9.10;;
9496;SDS011;4786;51.270;4.456;2022-11-11T07:20:19;9.77;;;8.77;;
9496;SDS011;4786;51.270;4.456;2022-11-11T07:22:45;12.60;;;9.10;;
9496;SDS011;4786;51.270;4.456;2022-11-11T07:25:11;10.37;;;9.20;;
9496;SDS011;4786;51.270;4.456;2022-11-11T07:27:38;12.17;;;9.77;;
9496;SDS011;4786;51.270;4.456;2022-11-11T07:30:04;9.37;;;8.00;;
9496;SDS011;4786;51.270;4.456;2022-11-11T07:32:31;12.87;;;9.07;;
9496;SDS011;4786;51.270;4.456;2022-11-11T07:34:57;10.97;;;9.27;;
9496;SDS011;4786;51.270;4.456;2022-11-11T07:37:24;10.00;;;9.00;;
9496;SDS011;4786;51.270;4.456;2022-11-11T07:39:50;15.03;;;9.53;;
9496;SDS011;4786;51.270;4.456;2022-11-11T07:42:16;9.83;;;8.77;;
9496;SDS011;4786;51.270;4.456;2022-11-11T07:44:41;9.73;;;8.07;;
9496;SDS011;4786;51.270;4.456;2022-11-11T07:47:07;11.03;;;8.73;;
9496;SDS011;4786;51.270;4.456;2022-11-11T07:49:34;11.77;;;8.00;;
9496;SDS011;4786;51.270;4.456;2022-11-11T07:51:59;10.20;;;8.33;;
9496;SDS011;4786;51.270;4.456;2022-11-11T07:54:26;8.73;;;7.83;;
9496;SDS011;4786;51.270;4.456;2022-11-11T07:56:52;10.07;;;7.93;;
9496;SDS011;4786;51.270;4.456;2022-11-11T07:59:18;9.13;;;7.37;;
9496;SDS011;4786;51.270;4.456;2022-11-11T08:01:44;9.13;;;7.40;;
9496;SDS011;4786;51.270;4.456;2022-11-11T08:04:09;11.80;;;7.33;;
9496;SDS011;4786;51.270;4.456;2022-11-11T08:06:35;8.53;;;7.07;;
9496;SDS011;4786;51.270;4.456;2022-11-11T08:09:01;10.30;;;7.73;;
9496;SDS011;4786;51.270;4.456;2022-11-11T08:11:28;9.00;;;8.00;;
9496;SDS011;4786;51.270;4.456;2022-11-11T08:14:12;9.37;;;7.63;;
9496;SDS011;4786;51.270;4.456;2022-11-11T08:16:38;8.73;;;7.30;;
9496;SDS011;4786;51.270;4.456;2022-11-11T08:19:04;8.97;;;7.60;;
9496;SDS011;4786;51.270;4.456;2022-11-11T08:21:30;8.10;;;7.40;;
9496;SDS011;4786;51.270;4.456;2022-11-11T08:23:55;10.90;;;6.77;;
9496;SDS011;4786;51.270;4.456;2022-11-11T08:26:21;11.27;;;7.57;;
9496;SDS011;4786;51.270;4.456;2022-11-11T08:28:48;10.47;;;7.40;;
9496;SDS011;4786;51.270;4.456;2022-11-11T08:31:16;9.77;;;7.30;;
9496;SDS011;4786;51.270;4.456;2022-11-11T08:33:42;10.33;;;7.33;;
9496;SDS011;4786;51.270;4.456;2022-11-11T08:36:09;10.43;;;7.30;;
9496;SDS011;4786;51.270;4.456;2022-11-11T08:38:35;9.13;;;7.13;;
9496;SDS011;4786;51.270;4.456;2022-11-11T08:41:03;9.37;;;7.70;;
9496;SDS011;4786;51.270;4.456;2022-11-11T08:43:31;14.77;;;8.07;;
9496;SDS011;4786;51.270;4.456;2022-11-11T08:45:58;9.93;;;7.33;;
9496;SDS011;4786;51.270;4.456;2022-11-11T08:48:25;9.23;;;7.33;;
9496;SDS011;4786;51.270;4.456;2022-11-11T08:50:51;10.03;;;6.67;;
9496;SDS011;4786;51.270;4.456;2022-11-11T08:53:18;8.87;;;6.73;;
9496;SDS011;4786;51.270;4.456;2022-11-11T08:55:45;9.20;;;6.43;;
9496;SDS011;4786;51.270;4.456;2022-11-11T08:58:11;10.37;;;6.33;;
9496;SDS011;4786;51.270;4.456;2022-11-11T09:00:38;9.73;;;6.50;;
9496;SDS011;4786;51.270;4.456;2022-11-11T09:03:05;7.90;;;6.37;;
9496;SDS011;4786;51.270;4.456;2022-11-11T09:05:34;8.83;;;6.03;;
9496;SDS011;4786;51.270;4.456;2022-11-11T09:08:03;7.13;;;6.20;;
9496;SDS011;4786;51.270;4.456;2022-11-11T09:10:31;10.40;;;6.33;;
9496;SDS011;4786;51.270;4.456;2022-11-11T09:12:58;9.47;;;6.60;;
9496;SDS011;4786;51.270;4.456;2022-11-11T09:15:24;8.50;;;6.57;;
9496;SDS011;4786;51.270;4.456;2022-11-11T09:17:50;7.93;;;6.43;;
9496;SDS011;4786;51.270;4.456;2022-11-11T09:20:16;9.27;;;6.10;;
9496;SDS011;4786;51.270;4.456;2022-11-11T09:22:43;10.33;;;6.93;;
9496;SDS011;4786;51.270;4.456;2022-11-11T09:25:10;7.97;;;6.23;;
9496;SDS011;4786;51.270;4.456;2022-11-11T09:27:36;8.67;;;6.30;;
9496;SDS011;4786;51.270;4.456;2022-11-11T09:30:02;8.67;;;6.30;;
9496;SDS011;4786;51.270;4.456;2022-11-11T09:32:30;8.50;;;6.30;;
9496;SDS011;4786;51.270;4.456;2022-11-11T09:34:56;8.73;;;6.60;;
9496;SDS011;4786;51.270;4.456;2022-11-11T09:37:23;10.97;;;7.20;;
9496;SDS011;4786;51.270;4.456;2022-11-11T09:39:48;8.10;;;6.70;;
9496;SDS011;4786;51.270;4.456;2022-11-11T09:45:07;7.50;;;6.37;;
9496;SDS011;4786;51.270;4.456;2022-11-11T09:47:47;10.40;;;6.80;;
9496;SDS011;4786;51.270;4.456;2022-11-11T09:50:35;8.80;;;6.77;;
9496;SDS011;4786;51.270;4.456;2022-11-11T09:55:39;7.40;;;6.50;;
9496;SDS011;4786;51.270;4.456;2022-11-11T09:58:27;8.17;;;6.60;;
9496;SDS011;4786;51.270;4.456;2022-11-11T10:01:23;8.30;;;6.20;;
9496;SDS011;4786;51.270;4.456;2022-11-11T10:06:47;7.23;;;6.53;;
9496;SDS011;4786;51.270;4.456;2022-11-11T10:11:53;7.80;;;6.93;;
9496;SDS011;4786;51.270;4.456;2022-11-11T10:14:31;9.23;;;6.70;;
9496;SDS011;4786;51.270;4.456;2022-11-11T10:17:10;14.20;;;6.77;;
9496;SDS011;4786;51.270;4.456;2022-11-11T10:20:08;10.80;;;7.23;;
9496;SDS011;4786;51.270;4.456;2022-11-11T10:22:43;9.23;;;7.67;;
9496;SDS011;4786;51.270;4.456;2022-11-11T10:27:37;10.33;;;8.03;;
9496;SDS011;4786;51.270;4.456;2022-11-11T10:32:52;12.27;;;8.20;;
9496;SDS011;4786;51.270;4.456;2022-11-11T10:35:23;8.27;;;7.13;;
9496;SDS011;4786;51.270;4.456;2022-11-11T10:38:34;10.37;;;7.43;;
9496;SDS011;4786;51.270;4.456;2022-11-11T10:40:48;11.17;;;7.03;;
9496;SDS011;4786;51.270;4.456;2022-11-11T10:43:27;8.43;;;7.43;;
9496;SDS011;4786;51.270;4.456;2022-11-11T10:51:45;9.23;;;7.53;;
9496;SDS011;4786;51.270;4.456;2022-11-11T10:55:06;9.13;;;7.33;;
9496;SDS011;4786;51.270;4.456;2022-11-11T10:57:13;9.87;;;7.87;;
9496;SDS011;4786;51.270;4.456;2022-11-11T11:02:20;7.23;;;6.40;;
9496;SDS011;4786;51.270;4.456;2022-11-11T11:07:44;9.47;;;7.13;;
9496;SDS011;4786;51.270;4.456;2022-11-11T11:10:12;9.47;;;7.63;;
9496;SDS011;4786;51.270;4.456;2022-11-11T11:15:40;12.67;;;9.43;;
9496;SDS011;4786;51.270;4.456;2022-11-11T11:18:13;11.57;;;8.43;;
9496;SDS011;4786;51.270;4.456;2022-11-11T11:21:02;10.07;;;7.70;;
9496;SDS011;4786;51.270;4.456;2022-11-11T11:23:38;11.07;;;7.53;;
9496;SDS011;4786;51.270;4.456;2022-11-11T11:26:05;9.67;;;7.03;;
9496;SDS011;4786;51.270;4.456;2022-11-11T11:28:33;9.83;;;8.30;;
9496;SDS011;4786;51.270;4.456;2022-11-11T11:31:06;7.93;;;7.13;;
9496;SDS011;4786;51.270;4.456;2022-11-11T11:36:20;9.33;;;6.83;;
9496;SDS011;4786;51.270;4.456;2022-11-11T11:38:47;10.57;;;7.93;;
9496;SDS011;4786;51.270;4.456;2022-11-11T11:41:17;9.40;;;8.00;;
9496;SDS011;4786;51.270;4.456;2022-11-11T11:46:54;10.90;;;9.30;;
9496;SDS011;4786;51.270;4.456;2022-11-11T11:52:28;10.17;;;8.93;;
9496;SDS011;4786;51.270;4.456;2022-11-11T11:55:03;9.17;;;8.17;;
9496;SDS011;4786;51.270;4.456;2022-11-11T12:05:53;8.63;;;7.63;;
9496;SDS011;4786;51.270;4.456;2022-11-11T12:14:09;8.97;;;7.80;;
9496;SDS011;4786;51.270;4.456;2022-11-11T12:24:42;8.53;;;6.43;;
9496;SDS011;4786;51.270;4.456;2022-11-11T12:30:22;6.47;;;5.87;;
9496;SDS011;4786;51.270;4.456;2022-11-11T12:36:23;9.00;;;6.10;;
9496;SDS011;4786;51.270;4.456;2022-11-11T12:38:56;6.83;;;6.07;;
9496;SDS011;4786;51.270;4.456;2022-11-11T12:56:24;8.13;;;5.37;;
9496;SDS011;4786;51.270;4.456;2022-11-11T12:58:54;6.57;;;5.13;;
9496;SDS011;4786;51.270;4.456;2022-11-11T13:06:55;6.33;;;4.67;;
9496;SDS011;4786;51.270;4.456;2022-11-11T13:12:30;5.60;;;4.77;;
9496;SDS011;4786;51.270;4.456;2022-11-11T13:15:20;6.57;;;4.33;;
9496;SDS011;4786;51.270;4.456;2022-11-11T13:17:48;5.10;;;3.90;;
9496;SDS011;4786;51.270;4.456;2022-11-11T13:23:01;5.60;;;3.90;;
9496;SDS011;4786;51.270;4.456;2022-11-11T13:25:29;4.93;;;3.67;;
9496;SDS011;4786;51.270;4.456;2022-11-11T13:28:00;5.47;;;3.63;;
9496;SDS011;4786;51.270;4.456;2022-11-11T13:33:23;6.03;;;3.60;;
9496;SDS011;4786;51.270;4.456;2022-11-11T13:36:02;5.07;;;3.30;;
9496;SDS011;4786;51.270;4.456;2022-11-11T13:38:36;4.60;;;3.10;;
9496;SDS011;4786;51.270;4.456;2022-11-11T13:41:10;4.17;;;3.00;;
9496;SDS011;4786;51.270;4.456;2022-11-11T13:43:41;7.37;;;3.53;;
9496;SDS011;4786;51.270;4.456;2022-11-11T13:49:04;3.17;;;2.87;;
9496;SDS011;4786;51.270;4.456;2022-11-11T13:51:44;6.73;;;3.20;;
9496;SDS011;4786;51.270;4.456;2022-11-11T13:56:47;5.20;;;2.93;;
9496;SDS011;4786;51.270;4.456;2022-11-11T13:59:25;3.93;;;2.63;;
9496;SDS011;4786;51.270;4.456;2022-11-11T14:07:48;4.77;;;2.70;;
9496;SDS011;4786;51.270;4.456;2022-11-11T14:20:48;4.23;;;2.47;;
9496;SDS011;4786;51.270;4.456;2022-11-11T14:23:38;4.00;;;2.70;;
9496;SDS011;4786;51.270;4.456;2022-11-11T14:33:48;6.50;;;3.10;;
9496;SDS011;4786;51.270;4.456;2022-11-11T14:36:55;3.17;;;2.60;;
9496;SDS011;4786;51.270;4.456;2022-11-11T14:39:35;4.10;;;2.57;;
9496;SDS011;4786;51.270;4.456;2022-11-11T14:45:03;4.87;;;2.53;;
9496;SDS011;4786;51.270;4.456;2022-11-11T14:47:50;4.10;;;2.93;;
9496;SDS011;4786;51.270;4.456;2022-11-11T14:52:58;5.13;;;3.90;;
9496;SDS011;4786;51.270;4.456;2022-11-11T14:55:27;4.80;;;3.53;;
9496;SDS011;4786;51.270;4.456;2022-11-11T14:58:14;4.17;;;3.50;;
9496;SDS011;4786;51.270;4.456;2022-11-11T15:06:03;5.07;;;4.40;;
9496;SDS011;4786;51.270;4.456;2022-11-11T15:30:20;5.07;;;3.40;;
9496;SDS011;4786;51.270;4.456;2022-11-11T15:35:23;6.67;;;2.97;;
9496;SDS011;4786;51.270;4.456;2022-11-11T15:38:12;4.53;;;3.30;;
9496;SDS011;4786;51.270;4.456;2022-11-11T15:40:52;4.47;;;3.13;;
9496;SDS011;4786;51.270;4.456;2022-11-11T15:43:22;3.63;;;3.10;;
9496;SDS011;4786;51.270;4.456;2022-11-11T15:45:53;4.30;;;3.10;;
9496;SDS011;4786;51.270;4.456;2022-11-11T15:48:22;4.50;;;3.10;;
9496;SDS011;4786;51.270;4.456;2022-11-11T15:50:57;5.10;;;3.60;;
9496;SDS011;4786;51.270;4.456;2022-11-11T15:53:24;6.70;;;4.00;;
9496;SDS011;4786;51.270;4.456;2022-11-11T15:55:56;3.87;;;3.37;;
9496;SDS011;4786;51.270;4.456;2022-11-11T15:58:31;4.57;;;3.50;;
9496;SDS011;4786;51.270;4.456;2022-11-11T16:00:58;5.17;;;4.40;;
9496;SDS011;4786;51.270;4.456;2022-11-11T16:03:40;6.67;;;5.10;;
9496;SDS011;4786;51.270;4.456;2022-11-11T16:06:09;8.77;;;6.73;;
9496;SDS011;4786;51.270;4.456;2022-11-11T16:08:48;9.53;;;6.90;;
9496;SDS011;4786;51.270;4.456;2022-11-11T16:11:17;9.47;;;7.07;;
9496;SDS011;4786;51.270;4.456;2022-11-11T16:13:55;11.67;;;7.20;;
9496;SDS011;4786;51.270;4.456;2022-11-11T16:16:27;11.20;;;7.37;;
9496;SDS011;4786;51.270;4.456;2022-11-11T16:21:43;11.90;;;9.03;;
9496;SDS011;4786;51.270;4.456;2022-11-11T16:24:25;10.80;;;8.00;;
9496;SDS011;4786;51.270;4.456;2022-11-11T16:26:56;8.37;;;6.43;;
9496;SDS011;4786;51.270;4.456;2022-11-11T16:29:26;8.93;;;5.90;;
9496;SDS011;4786;51.270;4.456;2022-11-11T16:32:00;8.73;;;5.63;;
9496;SDS011;4786;51.270;4.456;2022-11-11T16:37:11;9.47;;;7.23;;
9496;SDS011;4786;51.270;4.456;2022-11-11T16:39:40;8.93;;;6.70;;
9496;SDS011;4786;51.270;4.456;2022-11-11T16:42:20;10.27;;;6.83;;
9496;SDS011;4786;51.270;4.456;2022-11-11T16:44:55;12.53;;;7.27;;
9496;SDS011;4786;51.270;4.456;2022-11-11T16:52:55;11.77;;;7.90;;
9496;SDS011;4786;51.270;4.456;2022-11-11T16:57:54;8.13;;;7.13;;
9496;SDS011;4786;51.270;4.456;2022-11-11T17:00:22;8.13;;;6.00;;
9496;SDS011;4786;51.270;4.456;2022-11-11T17:03:07;8.57;;;6.03;;
9496;SDS011;4786;51.270;4.456;2022-11-11T17:08:34;7.10;;;5.13;;
9496;SDS011;4786;51.270;4.456;2022-11-11T17:11:08;7.03;;;5.10;;
9496;SDS011;4786;51.270;4.456;2022-11-11T17:13:36;8.93;;;5.50;;
9496;SDS011;4786;51.270;4.456;2022-11-11T17:16:03;6.23;;;4.40;;
9496;SDS011;4786;51.270;4.456;2022-11-11T17:18:38;5.73;;;4.77;;
9496;SDS011;4786;51.270;4.456;2022-11-11T17:21:04;6.17;;;5.30;;
9496;SDS011;4786;51.270;4.456;2022-11-11T17:23:30;8.27;;;5.03;;
9496;SDS011;4786;51.270;4.456;2022-11-11T17:25:57;6.37;;;5.33;;
9496;SDS011;4786;51.270;4.456;2022-11-11T17:28:29;7.80;;;5.60;;
9496;SDS011;4786;51.270;4.456;2022-11-11T17:30:57;6.83;;;5.80;;
9496;SDS011;4786;51.270;4.456;2022-11-11T17:33:27;5.83;;;4.70;;
9496;SDS011;4786;51.270;4.456;2022-11-11T17:35:52;9.03;;;5.63;;
9496;SDS011;4786;51.270;4.456;2022-11-11T17:38:18;6.33;;;5.07;;
9496;SDS011;4786;51.270;4.456;2022-11-11T17:40:45;6.23;;;5.33;;
9496;SDS011;4786;51.270;4.456;2022-11-11T17:43:12;8.87;;;6.17;;
9496;SDS011;4786;51.270;4.456;2022-11-11T17:45:38;8.17;;;6.27;;
9496;SDS011;4786;51.270;4.456;2022-11-11T17:48:04;7.10;;;6.40;;
9496;SDS011;4786;51.270;4.456;2022-11-11T17:50:31;7.10;;;5.90;;
9496;SDS011;4786;51.270;4.456;2022-11-11T17:52:57;7.50;;;6.10;;
9496;SDS011;4786;51.270;4.456;2022-11-11T17:55:23;8.53;;;6.33;;
9496;SDS011;4786;51.270;4.456;2022-11-11T17:57:49;8.87;;;5.97;;
9496;SDS011;4786;51.270;4.456;2022-11-11T18:00:15;9.80;;;6.70;;
9496;SDS011;4786;51.270;4.456;2022-11-11T18:02:41;7.57;;;6.20;;
9496;SDS011;4786;51.270;4.456;2022-11-11T18:05:07;8.37;;;6.70;;
9496;SDS011;4786;51.270;4.456;2022-11-11T18:07:33;8.73;;;7.03;;
9496;SDS011;4786;51.270;4.456;2022-11-11T18:10:00;12.90;;;7.83;;
9496;SDS011;4786;51.270;4.456;2022-11-11T18:12:27;10.73;;;9.50;;
9496;SDS011;4786;51.270;4.456;2022-11-11T18:14:53;12.70;;;10.13;;
9496;SDS011;4786;51.270;4.456;2022-11-11T18:17:19;12.10;;;8.97;;
9496;SDS011;4786;51.270;4.456;2022-11-11T18:19:45;10.13;;;8.73;;
9496;SDS011;4786;51.270;4.456;2022-11-11T18:22:11;12.10;;;8.73;;
9496;SDS011;4786;51.270;4.456;2022-11-11T18:24:37;10.90;;;9.33;;
9496;SDS011;4786;51.270;4.456;2022-11-11T18:27:03;12.60;;;9.10;;
9496;SDS011;4786;51.270;4.456;2022-11-11T18:29:30;12.73;;;10.10;;
9496;SDS011;4786;51.270;4.456;2022-11-11T18:31:56;11.67;;;10.47;;
9496;SDS011;4786;51.270;4.456;2022-11-11T18:34:22;12.77;;;10.73;;
9496;SDS011;4786;51.270;4.456;2022-11-11T18:36:49;15.43;;;13.13;;